Time;durP1;ratioP1;P1;durP2;ratioP2;P2;SDS_P1;SDS_P2;PMS_P1;PMS_P2;Temp;Humidity;BMP_temperature;BMP_pressure;BME280_temperature;BME280_humidity;BME280_pressure;Samples;Min_cycle;Max_cycle;Signal;HPM_P1;HPM_P2
2022/05/10 00:02:14;;;;;;;10.17;9.17;;;13.50;99.90;;;;;;5014316;28;20210;-86
2022/05/10 00:04:44;;;;;;;9.97;9.03;;;13.40;99.90;;;;;;4997574;28;20187;-86
2022/05/10 00:07:10;;;;;;;10.80;9.70;;;13.40;99.90;;;;;;4998266;28;20194;-86
2022/05/10 00:09:36;;;;;;;12.87;9.80;;;13.40;99.90;;;;;;5013546;28;20186;-86
2022/05/10 00:12:02;;;;;;;10.47;9.43;;;13.30;99.90;;;;;;4998185;28;20179;-86
2022/05/10 00:14:28;;;;;;;10.73;9.63;;;13.40;99.90;;;;;;4998084;28;20187;-86
2022/05/10 00:16:55;;;;;;;11.27;10.13;;;13.40;99.90;;;;;;4997961;28;20667;-86
2022/05/10 00:19:22;;;;;;;11.60;10.20;;;13.50;99.90;;;;;;5014232;28;20294;-86
2022/05/10 00:21:49;;;;;;;11.30;10.27;;;13.50;99.90;;;;;;4998251;28;20178;-86
2022/05/10 00:24:16;;;;;;;10.40;9.47;;;13.50;99.90;;;;;;4998136;28;20183;-86
2022/05/10 00:26:44;;;;;;;10.00;9.10;;;13.40;99.90;;;;;;4997954;28;20205;-86
2022/05/10 00:29:10;;;;;;;11.53;10.30;;;13.40;99.90;;;;;;4997371;28;20181;-86
2022/05/10 00:31:36;;;;;;;11.30;10.27;;;13.50;99.90;;;;;;4978409;28;20201;-86
2022/05/10 00:34:03;;;;;;;11.07;9.93;;;13.40;99.90;;;;;;4978333;28;20268;-86
2022/05/10 00:36:30;;;;;;;11.17;10.07;;;13.40;99.90;;;;;;4977599;28;20202;-86
2022/05/10 00:38:56;;;;;;;11.20;9.97;;;13.40;99.90;;;;;;4994353;28;20206;-86
2022/05/10 00:41:33;;;;;;;10.83;9.70;;;13.50;99.90;;;;;;4978418;28;20183;-86
2022/05/10 00:44:39;;;;;;;11.67;10.57;;;13.40;99.90;;;;;;4978210;28;20170;-86
2022/05/10 00:47:33;;;;;;;10.53;9.43;;;13.40;99.90;;;;;;4961484;28;20189;-86
2022/05/10 00:50:04;;;;;;;11.07;10.07;;;13.20;99.90;;;;;;4994323;28;20194;-86
2022/05/10 00:52:33;;;;;;;10.50;9.40;;;13.10;99.90;;;;;;4978107;28;20183;-86
2022/05/10 00:55:07;;;;;;;10.70;9.60;;;13.00;99.90;;;;;;4994244;28;20238;-86
2022/05/10 00:57:52;;;;;;;11.80;10.50;;;13.00;99.90;;;;;;4978077;28;20268;-86
2022/05/10 01:00:27;;;;;;;11.70;10.50;;;13.00;99.90;;;;;;5004775;28;20644;-86
2022/05/10 01:02:59;;;;;;;12.33;10.70;;;13.00;99.90;;;;;;5013326;28;20307;-86
2022/05/10 01:05:36;;;;;;;10.77;9.77;;;13.00;99.90;;;;;;4996815;28;20206;-86
2022/05/10 01:08:11;;;;;;;12.90;10.60;;;13.00;99.90;;;;;;4996404;28;20221;-86
2022/05/10 01:10:55;;;;;;;11.37;10.27;;;12.90;99.90;;;;;;4997181;28;20247;-86
2022/05/10 01:13:32;;;;;;;10.30;9.40;;;12.80;99.90;;;;;;4997386;28;20253;-86
2022/05/10 01:16:18;;;;;;;12.23;11.10;;;12.70;99.90;;;;;;5013280;28;20556;-86
2022/05/10 01:18:45;;;;;;;12.17;11.07;;;12.70;99.90;;;;;;4997647;28;20648;-86
2022/05/10 01:21:20;;;;;;;11.67;10.47;;;12.50;99.90;;;;;;4996682;28;20173;-86
2022/05/10 01:24:10;;;;;;;11.53;10.43;;;12.50;99.90;;;;;;5011925;28;20182;-86
2022/05/10 01:27:04;;;;;;;13.33;10.53;;;12.50;99.90;;;;;;4996777;28;20291;-86
2022/05/10 01:29:54;;;;;;;10.90;9.87;;;12.50;99.90;;;;;;4993119;28;20208;-86
2022/05/10 01:35:16;;;;;;;11.27;10.17;;;12.40;99.90;;;;;;4993412;28;20209;-86
2022/05/10 01:37:47;;;;;;;11.07;10.07;;;12.40;99.90;;;;;;4977328;28;20210;-86
2022/05/10 01:40:32;;;;;;;11.57;10.40;;;12.30;99.90;;;;;;4977171;28;20209;-85
2022/05/10 01:43:10;;;;;;;11.07;10.00;;;12.40;99.90;;;;;;4977552;28;20179;-86
2022/05/10 01:45:45;;;;;;;11.37;10.27;;;12.40;99.90;;;;;;4977651;28;20239;-86
2022/05/10 01:48:17;;;;;;;11.97;10.73;;;12.30;99.90;;;;;;4977783;28;20223;-85
2022/05/10 01:51:29;;;;;;;11.80;10.63;;;12.30;99.90;;;;;;4976624;28;20177;-86
2022/05/10 01:53:55;;;;;;;13.40;10.53;;;12.30;99.90;;;;;;4976900;28;20173;-86
2022/05/10 01:56:24;;;;;;;12.37;10.43;;;12.20;99.90;;;;;;4976814;28;20205;-86
2022/05/10 01:58:53;;;;;;;10.90;9.90;;;12.20;99.90;;;;;;4976625;28;20618;-86
2022/05/10 02:01:39;;;;;;;12.40;11.23;;;12.20;99.90;;;;;;4976818;28;20176;-86
2022/05/10 02:04:13;;;;;;;11.80;10.60;;;12.10;99.90;;;;;;4977070;28;20181;-86
2022/05/10 02:06:56;;;;;;;12.93;11.03;;;12.10;99.90;;;;;;4992776;28;20200;-86
2022/05/10 02:09:32;;;;;;;14.13;11.03;;;12.10;99.90;;;;;;4976658;28;20248;-86
2022/05/10 02:12:04;;;;;;;11.43;10.33;;;12.10;99.90;;;;;;4976435;28;20191;-86
2022/05/10 02:14:33;;;;;;;12.77;10.57;;;12.20;99.90;;;;;;4976012;28;20187;-86
2022/05/10 02:17:26;;;;;;;11.53;10.33;;;12.30;99.90;;;;;;4976498;28;20207;-86
2022/05/10 02:20:11;;;;;;;10.90;9.90;;;12.40;99.90;;;;;;4982100;28;20221;-86
2022/05/10 02:22:46;;;;;;;11.70;10.50;;;12.40;99.90;;;;;;4976413;28;20237;-85
2022/05/10 02:25:27;;;;;;;11.97;10.77;;;12.30;99.90;;;;;;4992534;28;20221;-85
2022/05/10 02:28:05;;;;;;;11.17;10.03;;;12.10;99.90;;;;;;4976233;28;20548;-86
2022/05/10 02:30:35;;;;;;;11.80;10.60;;;12.00;99.90;;;;;;4992331;28;20235;-86
2022/05/10 02:33:06;;;;;;;11.37;10.27;;;11.90;99.90;;;;;;5008810;28;20161;-86
2022/05/10 02:35:54;;;;;;;12.60;11.37;;;11.90;99.90;;;;;;5008737;28;20618;-85
2022/05/10 02:38:31;;;;;;;12.87;11.67;;;11.90;99.90;;;;;;5008574;28;20204;-85
2022/05/10 02:41:00;;;;;;;11.83;10.50;;;12.00;99.90;;;;;;5008528;28;20164;-86
2022/05/10 02:43:44;;;;;;;13.57;11.40;;;12.00;99.90;;;;;;5008257;28;20181;-85
2022/05/10 02:46:11;;;;;;;11.97;10.80;;;11.90;99.90;;;;;;5007989;28;20192;-85
2022/05/10 02:48:38;;;;;;;11.70;10.60;;;11.80;99.90;;;;;;5008309;28;20175;-86
2022/05/10 02:51:19;;;;;;;11.43;10.33;;;11.80;99.90;;;;;;5007758;28;20193;-86
2022/05/10 02:53:46;;;;;;;11.70;10.50;;;11.70;99.90;;;;;;5008861;28;20261;-85
2022/05/10 02:56:15;;;;;;;11.17;10.07;;;11.60;99.90;;;;;;5008331;28;20275;-85
2022/05/10 02:58:57;;;;;;;11.20;10.20;;;11.60;99.90;;;;;;5008420;28;20208;-86
2022/05/10 03:01:46;;;;;;;11.93;10.47;;;11.50;99.90;;;;;;5011975;28;20305;-85
2022/05/10 03:04:12;;;;;;;12.20;11.07;;;11.50;99.90;;;;;;5011671;28;20875;-86
2022/05/10 03:06:42;;;;;;;11.90;10.57;;;11.50;99.90;;;;;;4994339;28;20219;-86
2022/05/10 03:09:08;;;;;;;13.27;9.87;;;11.40;99.90;;;;;;4995148;28;20172;-86
2022/05/10 03:11:35;;;;;;;11.83;10.30;;;11.40;99.90;;;;;;4995204;28;20187;-86
2022/05/10 03:14:02;;;;;;;11.60;10.40;;;11.30;99.90;;;;;;4995143;28;20518;-85
2022/05/10 03:16:29;;;;;;;11.30;10.13;;;11.20;99.90;;;;;;5006108;28;20252;-85
2022/05/10 03:18:55;;;;;;;12.00;10.80;;;11.20;99.90;;;;;;5031608;28;20253;-86
2022/05/10 03:24:48;;;;;;;13.00;10.80;;;11.20;99.90;;;;;;5031642;28;20214;-85
2022/05/10 03:27:16;;;;;;;12.20;10.53;;;11.10;99.90;;;;;;5015144;28;20260;-86
2022/05/10 03:29:42;;;;;;;12.33;11.13;;;11.10;99.90;;;;;;5015065;28;20179;-85
2022/05/10 03:32:09;;;;;;;12.63;11.33;;;11.10;99.90;;;;;;5028160;28;20226;-85
2022/05/10 03:37:33;;;;;;;13.33;10.43;;;11.10;99.90;;;;;;4973106;28;20183;-85
2022/05/10 03:39:59;;;;;;;11.87;10.67;;;11.10;99.90;;;;;;4999093;28;20203;-86
2022/05/10 03:42:26;;;;;;;11.93;10.83;;;11.00;99.90;;;;;;4999335;28;20175;-86
2022/05/10 03:44:55;;;;;;;11.53;10.43;;;11.00;99.90;;;;;;4999581;28;20203;-86
2022/05/10 03:47:23;;;;;;;14.23;11.00;;;10.90;99.90;;;;;;5016128;28;20174;-86
2022/05/10 03:49:49;;;;;;;12.50;11.30;;;10.80;99.90;;;;;;4998961;28;20191;-86
2022/05/10 03:52:16;;;;;;;12.47;11.20;;;10.80;99.90;;;;;;4999209;28;20175;-86
2022/05/10 03:54:44;;;;;;;11.83;10.63;;;10.80;99.90;;;;;;4999281;28;20226;-86
2022/05/10 03:57:10;;;;;;;12.53;11.33;;;10.80;99.90;;;;;;5015613;28;20225;-85
2022/05/10 03:59:42;;;;;;;14.40;12.90;;;10.80;99.90;;;;;;4998942;28;20238;-86
2022/05/10 04:02:41;;;;;;;13.17;11.87;;;10.60;99.90;;;;;;4998076;28;20182;-86
2022/05/10 04:05:10;;;;;;;13.53;12.13;;;10.60;99.90;;;;;;5000771;28;20195;-85
2022/05/10 04:07:36;;;;;;;14.47;12.97;;;10.60;99.90;;;;;;4998840;28;20199;-85
2022/05/10 04:10:03;;;;;;;13.87;12.40;;;10.60;99.90;;;;;;4998924;28;20270;-86
2022/05/10 04:12:31;;;;;;;13.10;11.70;;;10.60;99.90;;;;;;4998685;28;20179;-86
2022/05/10 04:14:57;;;;;;;13.00;11.80;;;10.60;99.90;;;;;;4999095;28;20253;-86
2022/05/10 04:17:23;;;;;;;13.90;12.40;;;10.50;99.90;;;;;;4998669;28;20191;-86
2022/05/10 04:19:49;;;;;;;15.10;11.90;;;10.50;99.90;;;;;;4998358;28;20234;-86
2022/05/10 04:22:16;;;;;;;14.67;11.63;;;10.60;99.90;;;;;;4998223;28;20218;-85
2022/05/10 04:24:43;;;;;;;13.70;12.20;;;10.60;99.90;;;;;;4997673;28;20183;-85
2022/05/10 04:27:10;;;;;;;12.87;11.57;;;10.60;99.90;;;;;;4998228;28;20214;-86
2022/05/10 04:29:37;;;;;;;14.10;12.70;;;10.70;99.90;;;;;;4998382;28;20556;-86
2022/05/10 04:32:04;;;;;;;14.40;12.40;;;10.80;99.90;;;;;;4998501;28;20179;-86
2022/05/10 04:34:34;;;;;;;15.20;13.67;;;10.80;99.90;;;;;;5014460;28;20190;-86
2022/05/10 04:37:00;;;;;;;13.47;12.07;;;10.90;99.90;;;;;;4998213;28;20207;-86
2022/05/10 04:41:24;;;;;;;12.70;11.43;;;10.90;99.90;;;;;;5014680;28;20207;-86
2022/05/10 04:42:13;;;;;;;13.60;12.20;;;11.00;99.90;;;;;;5018956;28;20220;-86
2022/05/10 04:44:39;;;;;;;13.07;11.73;;;11.10;99.90;;;;;;5015362;28;20209;-85
2022/05/10 04:47:05;;;;;;;13.47;12.00;;;11.20;99.90;;;;;;5033130;28;20178;-85
2022/05/10 04:49:31;;;;;;;12.40;11.20;;;11.30;99.90;;;;;;5008868;28;20179;-86
2022/05/10 04:51:57;;;;;;;15.97;11.73;;;11.40;99.90;;;;;;5017116;28;20179;-86
2022/05/10 04:54:24;;;;;;;14.00;12.53;;;11.40;99.90;;;;;;5033966;28;20224;-85
2022/05/10 04:56:50;;;;;;;13.33;11.93;;;11.40;99.90;;;;;;5022016;28;20345;-85
2022/05/10 04:59:16;;;;;;;12.93;11.73;;;11.50;99.90;;;;;;5012819;28;20200;-86
2022/05/10 05:01:45;;;;;;;12.37;11.03;;;11.50;99.90;;;;;;4996950;28;20183;-86
2022/05/10 05:04:11;;;;;;;13.53;12.13;;;11.60;99.90;;;;;;4997558;28;20207;-86
2022/05/10 05:06:40;;;;;;;13.03;11.73;;;11.70;99.90;;;;;;4998023;28;20195;-86
2022/05/10 05:09:07;;;;;;;13.10;11.70;;;11.80;99.90;;;;;;4997242;28;20187;-86
2022/05/10 05:11:33;;;;;;;13.40;12.00;;;11.90;99.90;;;;;;5015305;28;20192;-86
2022/05/10 05:13:58;;;;;;;15.13;13.17;;;12.00;99.90;;;;;;4997775;28;20186;-86
2022/05/10 05:16:24;;;;;;;13.90;11.73;;;12.00;99.90;;;;;;4997877;28;20207;-86
2022/05/10 05:18:51;;;;;;;13.47;12.17;;;12.10;99.90;;;;;;4997499;28;20204;-87
2022/05/10 05:21:17;;;;;;;14.17;12.50;;;12.20;99.90;;;;;;5012871;28;20172;-86
2022/05/10 05:23:44;;;;;;;12.73;11.43;;;12.30;99.90;;;;;;4997317;28;20276;-86
2022/05/10 05:26:10;;;;;;;13.43;12.00;;;12.40;99.90;;;;;;5013296;28;20200;-86
2022/05/10 05:28:36;;;;;;;12.80;11.50;;;12.50;99.90;;;;;;5013338;28;20180;-87
2022/05/10 05:31:03;;;;;;;13.67;12.20;;;12.50;99.90;;;;;;4996775;28;20179;-86
2022/05/10 05:33:33;;;;;;;13.10;11.73;;;12.50;99.90;;;;;;4996838;28;20188;-86
2022/05/10 05:35:58;;;;;;;14.67;12.53;;;12.50;99.90;;;;;;4997259;28;20219;-86
2022/05/10 05:38:26;;;;;;;12.37;11.17;;;12.60;99.90;;;;;;4996769;28;20184;-86
2022/05/10 05:40:52;;;;;;;13.90;12.50;;;12.70;99.90;;;;;;5012867;28;20264;-86
2022/05/10 05:43:20;;;;;;;14.50;13.17;;;12.90;99.90;;;;;;5012998;28;20259;-86
2022/05/10 05:45:48;;;;;;;13.73;12.33;;;13.00;99.90;;;;;;4996336;28;20200;-86
2022/05/10 05:48:14;;;;;;;14.37;12.70;;;13.00;99.90;;;;;;4996582;28;20216;-86
2022/05/10 05:50:39;;;;;;;13.60;12.27;;;13.10;99.90;;;;;;4996205;28;20259;-86
2022/05/10 05:53:06;;;;;;;14.07;12.57;;;13.20;99.90;;;;;;4996582;28;20181;-86
2022/05/10 05:55:32;;;;;;;14.27;12.33;;;13.30;99.90;;;;;;4996386;28;20253;-86
2022/05/10 05:57:58;;;;;;;13.90;12.50;;;13.40;99.90;;;;;;4996394;28;20221;-86
2022/05/10 06:00:25;;;;;;;14.40;12.53;;;13.50;99.90;;;;;;4996109;28;20667;-86
2022/05/10 06:02:54;;;;;;;13.67;12.27;;;13.60;99.90;;;;;;4996451;28;20182;-86
2022/05/10 06:05:21;;;;;;;14.40;12.90;;;13.80;99.90;;;;;;4996649;28;20722;-87
2022/05/10 06:07:47;;;;;;;13.60;12.27;;;14.00;99.90;;;;;;4996982;28;20189;-88
2022/05/10 06:10:14;;;;;;;13.10;11.73;;;14.10;99.90;;;;;;5000253;28;20190;-86
2022/05/10 06:12:41;;;;;;;13.57;12.27;;;14.20;99.90;;;;;;4996365;28;20186;-86
2022/05/10 06:15:11;;;;;;;13.20;11.90;;;14.30;99.90;;;;;;4995882;28;20285;-86
2022/05/10 06:17:39;;;;;;;12.90;11.63;;;14.40;99.90;;;;;;4995913;28;20273;-86
2022/05/10 06:20:09;;;;;;;13.63;12.23;;;14.50;99.90;;;;;;5012141;28;20221;-85
2022/05/10 06:22:35;;;;;;;13.23;11.63;;;14.60;99.90;;;;;;4995793;28;20183;-86
2022/05/10 06:25:02;;;;;;;13.70;12.30;;;14.70;99.90;;;;;;4995701;28;20201;-86
2022/05/10 06:27:28;;;;;;;14.30;12.43;;;14.90;99.90;;;;;;4995703;28;20258;-86
2022/05/10 06:29:54;;;;;;;13.43;12.03;;;14.90;99.90;;;;;;4995505;28;20278;-86
2022/05/10 06:32:22;;;;;;;12.50;11.30;;;15.00;99.90;;;;;;4995145;28;20213;-86
2022/05/10 06:34:50;;;;;;;13.97;12.60;;;15.00;99.90;;;;;;4995642;28;20273;-86
2022/05/10 06:40:10;;;;;;;14.80;12.30;;;15.20;99.90;;;;;;5011708;28;20199;-86
2022/05/10 06:42:36;;;;;;;13.27;11.90;;;15.30;99.90;;;;;;5013275;28;20163;-86
2022/05/10 06:45:08;;;;;;;13.43;12.00;;;15.40;99.90;;;;;;4995925;28;20265;-86
2022/05/10 06:47:36;;;;;;;13.53;12.33;;;15.50;99.90;;;;;;4994952;28;20241;-86
2022/05/10 06:50:07;;;;;;;13.67;12.37;;;15.60;99.90;;;;;;5012032;28;20183;-86
2022/05/10 06:52:33;;;;;;;14.40;12.13;;;15.80;99.90;;;;;;4995902;28;20182;-86
2022/05/10 06:54:59;;;;;;;13.87;12.47;;;15.80;99.90;;;;;;4995527;28;20203;-86
2022/05/10 06:57:25;;;;;;;14.23;12.50;;;15.90;99.90;;;;;;4995542;28;20271;-86
2022/05/10 06:59:53;;;;;;;14.40;12.90;;;16.00;99.90;;;;;;4995615;28;20239;-86
2022/05/10 07:02:19;;;;;;;13.97;12.57;;;16.00;99.90;;;;;;4997524;28;20183;-86
2022/05/10 07:04:45;;;;;;;13.30;12.10;;;16.20;99.90;;;;;;5011835;28;20183;-86
2022/05/10 07:07:10;;;;;;;12.70;11.40;;;16.40;99.90;;;;;;5000582;28;20187;-86
2022/05/10 07:09:36;;;;;;;13.73;12.23;;;16.60;99.90;;;;;;5002554;28;20187;-86
2022/05/10 07:12:02;;;;;;;13.40;12.10;;;16.70;99.90;;;;;;5002355;28;20186;-86
2022/05/10 07:14:29;;;;;;;13.33;12.03;;;16.80;99.90;;;;;;5002314;28;20236;-86
2022/05/10 07:16:56;;;;;;;12.97;11.53;;;17.00;99.90;;;;;;5002402;28;20210;-86
2022/05/10 07:19:22;;;;;;;14.03;12.50;;;17.10;99.90;;;;;;5002077;28;20207;-86
2022/05/10 07:21:50;;;;;;;12.15;11.05;;;17.30;99.90;;;;;;5002567;28;20184;-86
2022/05/10 07:24:19;;;;;;;13.32;11.48;;;17.40;99.90;;;;;;5002556;28;20274;-86
2022/05/10 07:26:48;;;;;;;13.15;11.90;;;17.50;99.90;;;;;;5020566;28;20226;-85
2022/05/10 07:29:15;;;;;;;11.77;10.70;;;17.60;99.90;;;;;;5001997;28;20183;-86
2022/05/10 07:31:41;;;;;;;13.63;11.77;;;17.80;99.90;;;;;;5002170;28;20175;-86
2022/05/10 07:34:08;;;;;;;12.23;11.13;;;17.80;99.90;;;;;;5001861;28;20677;-86
2022/05/10 07:36:34;;;;;;;13.50;12.20;;;18.00;99.90;;;;;;5017887;28;20294;-86
2022/05/10 07:39:06;;;;;;;12.88;11.60;;;18.00;99.90;;;;;;5002170;28;20221;-86
2022/05/10 07:41:33;;;;;;;12.38;11.23;;;18.10;99.90;;;;;;5002148;28;20175;-86
2022/05/10 07:43:59;;;;;;;12.60;11.40;;;18.20;99.90;;;;;;5018712;28;20179;-86
2022/05/10 07:46:25;;;;;;;12.43;11.23;;;18.30;99.90;;;;;;5001992;28;20731;-86
2022/05/10 07:48:51;;;;;;;11.65;10.45;;;18.40;99.90;;;;;;5001773;28;20198;-87
2022/05/10 07:51:18;;;;;;;13.07;10.90;;;18.50;99.90;;;;;;5018479;28;20175;-86
2022/05/10 07:53:44;;;;;;;12.60;11.40;;;18.70;99.90;;;;;;5001984;28;20179;-86
2022/05/10 07:56:14;;;;;;;12.65;11.55;;;18.90;99.90;;;;;;5002419;28;20329;-86
2022/05/10 07:58:40;;;;;;;13.27;11.93;;;19.10;99.90;;;;;;5018198;28;20210;-86
2022/05/10 08:01:07;;;;;;;11.95;10.85;;;19.20;99.90;;;;;;4985554;28;20184;-86
2022/05/10 08:03:39;;;;;;;11.55;10.43;;;19.20;99.90;;;;;;4998694;28;20183;-86
2022/05/10 08:06:05;;;;;;;10.85;9.75;;;19.50;99.90;;;;;;4982849;28;20293;-86
2022/05/10 08:08:33;;;;;;;12.25;10.93;;;19.70;99.90;;;;;;5016009;28;20219;-86
2022/05/10 08:11:00;;;;;;;13.68;10.88;;;19.90;99.90;;;;;;4982630;28;20191;-86
2022/05/10 08:13:28;;;;;;;11.88;10.70;;;20.00;99.90;;;;;;4982490;28;20221;-86
2022/05/10 08:15:55;;;;;;;11.60;10.35;;;20.20;99.90;;;;;;4998383;28;20254;-86
2022/05/10 08:18:22;;;;;;;10.63;9.35;;;20.40;99.90;;;;;;4980307;28;20184;-86
2022/05/10 08:20:50;;;;;;;10.77;9.63;;;20.50;99.90;;;;;;4995325;28;20176;-86
2022/05/10 08:23:38;;;;;;;9.68;8.77;;;20.70;99.90;;;;;;4978850;28;20275;-86
2022/05/10 08:26:06;;;;;;;10.40;9.40;;;20.90;99.90;;;;;;4979124;28;20202;-86
2022/05/10 08:28:34;;;;;;;10.63;9.57;;;21.00;99.90;;;;;;4979370;28;20234;-86
2022/05/10 08:31:06;;;;;;;9.32;8.50;;;21.20;99.90;;;;;;4995247;28;20246;-86
2022/05/10 08:33:34;;;;;;;10.82;8.55;;;21.30;99.90;;;;;;4978745;28;20164;-86
2022/05/10 08:36:01;;;;;;;9.13;8.18;;;21.50;99.90;;;;;;4994976;28;20203;-86
2022/05/10 08:38:28;;;;;;;9.95;9.00;;;21.70;99.90;;;;;;4995367;28;20243;-86
2022/05/10 08:41:06;;;;;;;9.45;8.55;;;21.90;99.90;;;;;;4994842;28;20179;-86
2022/05/10 08:44:04;;;;;;;9.45;8.45;;;22.10;99.90;;;;;;4978766;28;20172;-87
2022/05/10 08:46:39;;;;;;;8.55;7.65;;;22.30;99.90;;;;;;4989583;28;20200;-86
2022/05/10 08:49:20;;;;;;;13.38;9.82;;;22.50;99.90;;;;;;4978725;28;20194;-86
2022/05/10 08:51:48;;;;;;;10.07;9.07;;;22.70;99.90;;;;;;4995090;28;20191;-86
2022/05/10 08:54:14;;;;;;;9.40;8.50;;;22.70;99.90;;;;;;4979664;28;20180;-86
2022/05/10 08:57:09;;;;;;;10.27;9.25;;;22.90;99.90;;;;;;4978738;28;20204;-84
2022/05/10 08:59:59;;;;;;;10.75;9.50;;;23.10;99.90;;;;;;4998740;28;20211;-84
2022/05/10 09:02:40;;;;;;;13.15;8.32;;;23.30;99.90;;;;;;5014179;28;20163;-84
2022/05/10 09:05:33;;;;;;;9.68;8.77;;;23.30;99.90;;;;;;5014736;28;20209;-83
2022/05/10 09:08:01;;;;;;;8.82;7.93;;;23.40;99.90;;;;;;4998049;28;20195;-84
2022/05/10 09:10:37;;;;;;;7.95;7.25;;;23.60;99.90;;;;;;4997776;28;20191;-84
2022/05/10 09:13:14;;;;;;;9.35;8.45;;;23.60;99.90;;;;;;5014501;28;20278;-84
2022/05/10 09:15:45;;;;;;;9.13;8.32;;;23.90;99.90;;;;;;4997662;28;20195;-84
2022/05/10 09:18:21;;;;;;;9.15;8.40;;;23.90;99.90;;;;;;4998147;28;20191;-84
2022/05/10 09:21:26;;;;;;;12.38;8.63;;;23.90;99.90;;;;;;4997435;28;20183;-84
2022/05/10 09:24:30;;;;;;;8.85;8.05;;;23.70;99.90;;;;;;4994082;28;20179;-84
2022/05/10 09:27:07;;;;;;;8.68;6.97;;;23.70;99.90;;;;;;4997416;28;20175;-84
2022/05/10 09:29:47;;;;;;;9.18;8.30;;;23.80;99.90;;;;;;4996096;28;20194;-84
2022/05/10 09:35:18;;;;;;;7.68;7.07;;;24.10;99.90;;;;;;5013745;28;20207;-84
2022/05/10 09:37:44;;;;;;;7.18;6.57;;;24.30;99.90;;;;;;4997217;28;20206;-85
2022/05/10 09:40:32;;;;;;;6.53;5.95;;;24.40;99.90;;;;;;5013215;28;20210;-85
2022/05/10 09:43:22;;;;;;;7.50;6.68;;;24.70;99.90;;;;;;4997253;28;20176;-84
2022/05/10 09:46:04;;;;;;;7.07;6.47;;;25.00;99.90;;;;;;5013447;28;20188;-85
2022/05/10 09:48:30;;;;;;;7.93;6.40;;;25.10;99.90;;;;;;4997361;28;20167;-84
2022/05/10 09:50:58;;;;;;;7.13;6.53;;;24.80;99.90;;;;;;4996713;28;20175;-84
2022/05/10 09:53:25;;;;;;;6.43;5.93;;;24.80;99.90;;;;;;4996899;28;20186;-84
2022/05/10 09:56:00;;;;;;;8.32;6.22;;;24.70;99.90;;;;;;4996811;28;20230;-85
2022/05/10 09:58:29;;;;;;;6.30;5.70;;;24.80;99.90;;;;;;4997013;28;20178;-84
2022/05/10 10:00:56;;;;;;;7.22;6.55;;;24.80;99.90;;;;;;4996550;28;20172;-84
2022/05/10 10:03:37;;;;;;;5.10;4.70;;;24.80;99.90;;;;;;5013281;28;20230;-85
2022/05/10 10:06:17;;;;;;;7.53;5.97;;;24.70;99.90;;;;;;4996589;28;20202;-85
2022/05/10 10:08:56;;;;;;;5.60;5.10;;;24.90;99.90;;;;;;4996651;28;20187;-85
2022/05/10 10:11:21;;;;;;;5.65;5.13;;;25.10;99.90;;;;;;5012994;28;20182;-85
2022/05/10 10:14:08;;;;;;;5.40;4.90;;;25.30;99.90;;;;;;5012930;28;20175;-85
2022/05/10 10:16:50;;;;;;;5.80;5.20;;;25.40;99.90;;;;;;4996764;28;20261;-85
2022/05/10 10:19:41;;;;;;;5.00;4.68;;;25.60;99.90;;;;;;4995905;28;20294;-84
2022/05/10 10:22:14;;;;;;;5.35;4.60;;;25.70;99.60;;;;;;5012888;28;20210;-85
2022/05/10 10:25:03;;;;;;;5.55;5.00;;;25.80;97.80;;;;;;5012502;28;20170;-89
2022/05/10 10:27:39;;;;;;;5.80;5.20;;;25.90;98.70;;;;;;4996141;28;20179;-85
2022/05/10 10:30:27;;;;;;;7.88;5.20;;;25.70;97.50;;;;;;4995267;28;20218;-84
2022/05/10 10:33:25;;;;;;;5.28;4.88;;;25.90;97.30;;;;;;5012647;28;20179;-85
2022/05/10 10:35:55;;;;;;;5.25;4.75;;;25.80;96.50;;;;;;5012511;28;20195;-85
2022/05/10 10:38:48;;;;;;;5.30;4.57;;;25.90;96.60;;;;;;4996186;28;20202;-85
2022/05/10 10:41:21;;;;;;;5.30;4.80;;;26.10;96.90;;;;;;4995682;28;20229;-85
2022/05/10 10:43:58;;;;;;;5.68;4.60;;;26.10;96.10;;;;;;4996101;28;20182;-85
2022/05/10 10:47:12;;;;;;;4.80;4.40;;;26.00;96.80;;;;;;4995931;28;20191;-84
2022/05/10 10:49:47;;;;;;;4.15;3.75;;;26.10;96.70;;;;;;4989444;28;20191;-85
2022/05/10 10:52:14;;;;;;;4.10;3.80;;;26.20;95.90;;;;;;4995782;28;20183;-85
2022/05/10 10:54:41;;;;;;;5.30;4.80;;;26.20;94.90;;;;;;4995971;28;20182;-85
2022/05/10 10:57:40;;;;;;;4.75;4.40;;;26.30;97.10;;;;;;4995632;28;20198;-85
2022/05/10 11:00:37;;;;;;;4.70;4.30;;;26.50;97.20;;;;;;4995827;28;20218;-85
2022/05/10 11:03:20;;;;;;;4.22;3.83;;;26.70;94.40;;;;;;5011889;28;20163;-85
2022/05/10 11:05:58;;;;;;;6.07;4.72;;;27.10;95.50;;;;;;4996603;28;20218;-85
2022/05/10 11:08:27;;;;;;;6.20;4.80;;;27.00;94.90;;;;;;4996121;28;20194;-85
2022/05/10 11:10:59;;;;;;;4.47;4.07;;;26.90;95.60;;;;;;4995620;28;20278;-85
2022/05/10 11:13:49;;;;;;;4.60;4.20;;;26.90;95.30;;;;;;4995906;28;20190;-85
2022/05/10 11:16:43;;;;;;;3.85;3.50;;;27.10;94.50;;;;;;4995702;28;20196;-85
2022/05/10 11:19:40;;;;;;;3.17;2.97;;;27.20;92.60;;;;;;4995489;28;20199;-85
2022/05/10 11:22:40;;;;;;;3.92;3.60;;;27.40;90.80;;;;;;4996131;28;20225;-85
2022/05/10 11:25:32;;;;;;;4.63;3.28;;;27.00;88.10;;;;;;4995192;28;20222;-85
2022/05/10 11:28:29;;;;;;;4.03;3.60;;;27.00;89.70;;;;;;4995693;28;20175;-85
2022/05/10 11:31:16;;;;;;;3.80;3.42;;;27.20;90.90;;;;;;5011433;28;20186;-85
2022/05/10 11:34:20;;;;;;;4.07;3.78;;;27.30;90.20;;;;;;4994755;28;20237;-85
2022/05/10 11:36:51;;;;;;;4.13;3.75;;;27.20;90.30;;;;;;4985551;28;20238;-85
2022/05/10 11:39:44;;;;;;;3.63;3.30;;;27.40;90.70;;;;;;5009890;28;20230;-86
2022/05/10 11:42:35;;;;;;;3.70;3.40;;;27.80;89.20;;;;;;4986771;28;20184;-85
2022/05/10 11:45:30;;;;;;;3.75;3.45;;;27.70;91.10;;;;;;4996266;28;20199;-84
2022/05/10 11:48:03;;;;;;;3.88;3.47;;;27.80;90.30;;;;;;5003079;28;20195;-81
2022/05/10 11:50:31;;;;;;;3.88;3.58;;;28.00;90.20;;;;;;4996838;28;20184;-89
2022/05/10 11:53:28;;;;;;;5.60;3.85;;;27.90;90.00;;;;;;4998652;28;20202;-88
2022/05/10 11:56:02;;;;;;;4.97;3.83;;;27.90;90.10;;;;;;5001161;28;20249;-83
2022/05/10 11:58:30;;;;;;;3.92;3.45;;;27.70;90.90;;;;;;5014520;28;20187;-84
2022/05/10 12:01:02;;;;;;;4.15;3.50;;;27.60;90.90;;;;;;4998559;28;20191;-84
2022/05/10 12:03:43;;;;;;;4.03;3.65;;;27.50;91.70;;;;;;4998369;28;20182;-84
2022/05/10 12:06:26;;;;;;;4.85;3.65;;;27.40;91.20;;;;;;4997389;28;20199;-83
2022/05/10 12:09:05;;;;;;;3.60;3.30;;;27.00;90.40;;;;;;5047438;28;20180;-85
2022/05/10 12:11:31;;;;;;;4.10;3.80;;;27.00;91.20;;;;;;4998180;28;20191;-84
2022/05/10 12:22:58;;;;;;;100.82;9.90;;;27.10;90.10;;;;;;5014517;28;20183;-86
2022/05/10 12:25:57;;;;;;;4.75;3.85;;;27.30;88.10;;;;;;4978949;28;20207;-86
2022/05/10 12:28:48;;;;;;;4.85;3.70;;;27.40;87.00;;;;;;5014532;28;20168;-86
2022/05/10 12:31:30;;;;;;;4.55;4.15;;;27.30;90.70;;;;;;4998051;28;20207;-87
2022/05/10 12:34:08;;;;;;;4.13;3.70;;;27.40;90.70;;;;;;4997721;28;20171;-86
2022/05/10 12:36:39;;;;;;;3.88;3.50;;;27.70;89.00;;;;;;4997592;28;20206;-87
2022/05/10 12:39:30;;;;;;;3.90;3.60;;;28.10;90.20;;;;;;5014635;28;20203;-87
2022/05/10 12:42:13;;;;;;;4.35;4.05;;;28.40;89.90;;;;;;4998039;28;20183;-87
2022/05/10 12:44:46;;;;;;;3.70;3.40;;;28.50;90.90;;;;;;5013832;28;20628;-86
2022/05/10 12:47:45;;;;;;;4.00;3.60;;;28.50;89.80;;;;;;4996969;28;20187;-86
2022/05/10 12:50:23;;;;;;;3.80;3.50;;;28.80;90.40;;;;;;4997670;28;20640;-86
2022/05/10 12:52:50;;;;;;;3.92;3.63;;;28.90;88.40;;;;;;4997785;28;20258;-86
2022/05/10 12:55:28;;;;;;;4.22;3.92;;;28.80;86.60;;;;;;4997901;28;20203;-87
2022/05/10 12:58:05;;;;;;;3.88;3.58;;;28.90;87.70;;;;;;5013887;28;20259;-87
2022/05/10 13:00:45;;;;;;;3.95;3.63;;;29.00;89.20;;;;;;5013804;28;20202;-87
2022/05/10 13:03:34;;;;;;;3.83;3.53;;;28.90;86.10;;;;;;4996658;28;20246;-87
2022/05/10 13:06:42;;;;;;;3.97;3.67;;;29.00;87.90;;;;;;5002228;28;20206;-86
2022/05/10 13:09:18;;;;;;;6.13;3.60;;;29.10;89.90;;;;;;5008549;28;20195;-87
2022/05/10 13:12:01;;;;;;;3.80;3.50;;;29.00;84.30;;;;;;5014017;28;20186;-86
2022/05/10 13:14:34;;;;;;;4.13;3.60;;;28.50;85.60;;;;;;5005983;28;20184;-86
2022/05/10 13:17:00;;;;;;;3.63;3.33;;;28.50;84.70;;;;;;5000570;28;20176;-86
2022/05/10 13:19:28;;;;;;;4.28;3.92;;;28.30;84.40;;;;;;5013253;28;20473;-86
2022/05/10 13:21:55;;;;;;;4.72;3.70;;;28.20;85.00;;;;;;5004534;28;20172;-87
2022/05/10 13:24:22;;;;;;;4.40;3.30;;;28.30;86.80;;;;;;5013579;28;20183;-87
2022/05/10 13:26:58;;;;;;;4.13;3.83;;;28.50;86.40;;;;;;4997235;28;20199;-86
2022/05/10 13:29:38;;;;;;;4.50;3.58;;;28.60;86.50;;;;;;4985854;28;20187;-87
2022/05/10 13:32:09;;;;;;;4.32;4.03;;;28.30;86.90;;;;;;4998159;28;20199;-86
2022/05/10 13:34:47;;;;;;;4.25;3.90;;;28.00;84.10;;;;;;4997034;28;20167;-86